KFSM/FSM METAR and TAF weather

Enter ICAO airport designator
Station Type Date Time Source
KFSM METAR 2020/01/20 15:53 UTC NOAA

KFSM 201553Z 00000KT 10SM CLR M01/M08 A3063 RMK AO2 SLP376 T10061078 $


Station Type Date Time Source
KFSM Decoded METAR 2020/01/20 15:53 UTC NOAA

FORT SMITH REGIONAL AIRPORT, AR, United States (KFSM) 35-20N 94-22W 140M
Jan 20, 2020 - 10:53 AM EST / 2020.01.20 1553 UTC
Wind: Calm:0
Visibility: 10 mile(s):0
Sky conditions: clear
Temperature: 30.9 F (-0.6 C)
Dew Point: 18.0 F (-7.8 C)
Relative Humidity: 58%
Pressure (altimeter): 30.63 in. Hg (1037 hPa)
ob: KFSM 201553Z 00000KT 10SM CLR M01/M08 A3063 RMK AO2 SLP376 T10061078
cycle: 16

Station Type Date Time Source
KFSM TAF 2020/01/20 12:27 UTC NOAA

TAF KFSM 201124Z 2012/2112 VRB05KT P6SM SKC
FM210500 05006KT P6SM SKC

Example: see airport list